createdAt,value
2018-04-24T00:00:43.504Z,17.37
2018-04-24T00:03:10.928Z,17.29
2018-04-24T00:05:38.304Z,17.28
2018-04-24T00:08:05.696Z,17.24
2018-04-24T00:10:33.187Z,17.03
2018-04-24T00:13:00.591Z,17.11
2018-04-24T00:15:27.977Z,17.05
2018-04-24T00:17:55.364Z,17.30
2018-04-24T00:20:22.767Z,17.40
2018-04-24T00:22:50.137Z,17.27
2018-04-24T00:25:17.533Z,16.66
2018-04-24T00:27:44.894Z,16.75
2018-04-24T00:30:12.352Z,16.95
2018-04-24T00:32:39.736Z,16.88
2018-04-24T00:35:07.133Z,17.13
2018-04-24T00:37:34.519Z,16.95
2018-04-24T00:40:01.917Z,17.09
2018-04-24T00:42:29.287Z,16.84
2018-04-24T00:44:56.675Z,16.76
2018-04-24T00:47:24.072Z,16.60
2018-04-24T00:49:51.484Z,16.71
2018-04-24T00:52:18.854Z,16.86
2018-04-24T00:54:46.235Z,16.56
2018-04-24T00:57:13.924Z,16.37
2018-04-24T00:59:41.317Z,16.43
2018-04-24T01:02:09.045Z,16.34
2018-04-24T01:04:36.414Z,16.36
2018-04-24T01:07:03.795Z,16.39
2018-04-24T01:09:31.170Z,16.35
2018-04-24T01:11:58.550Z,16.19
2018-04-24T01:14:25.935Z,16.11
2018-04-24T01:16:53.323Z,16.24
2018-04-24T01:19:20.697Z,16.30
2018-04-24T01:21:48.075Z,16.45
2018-04-24T01:24:15.448Z,16.16
2018-04-24T01:26:43.013Z,16.14
2018-04-24T01:29:10.385Z,16.25
2018-04-24T01:31:37.771Z,16.31
2018-04-24T01:34:05.157Z,16.21
2018-04-24T01:36:32.533Z,15.88
2018-04-24T01:38:59.917Z,16.02
2018-04-24T01:41:27.283Z,16.03
2018-04-24T01:43:54.666Z,15.83
2018-04-24T01:46:22.052Z,16.19
2018-04-24T01:48:49.436Z,16.06
2018-04-24T01:51:16.835Z,15.94
2018-04-24T01:53:44.228Z,16.00
2018-04-24T01:56:11.614Z,15.86
2018-04-24T01:58:39.190Z,16.01
2018-04-24T02:01:06.561Z,15.78
2018-04-24T02:03:33.923Z,15.84
2018-04-24T02:06:01.315Z,15.88
2018-04-24T02:08:28.688Z,15.73
2018-04-24T02:10:56.079Z,15.70
2018-04-24T02:13:23.460Z,15.81
2018-04-24T02:15:50.846Z,15.77
2018-04-24T02:18:18.234Z,15.67
2018-04-24T02:20:45.616Z,15.67
2018-04-24T02:23:12.999Z,15.71
2018-04-24T02:25:40.393Z,15.57
2018-04-24T02:28:07.763Z,15.63
2018-04-24T02:30:35.135Z,15.53
2018-04-24T02:33:02.528Z,15.56
2018-04-24T02:35:29.917Z,15.64
2018-04-24T02:37:57.306Z,15.57
2018-04-24T02:40:24.741Z,15.27
2018-04-24T02:42:52.071Z,15.50
2018-04-24T02:45:19.443Z,15.38
2018-04-24T02:47:46.823Z,15.32
2018-04-24T02:50:14.207Z,15.46
2018-04-24T02:52:41.591Z,15.24
2018-04-24T02:55:08.970Z,15.21
2018-04-24T02:57:36.377Z,15.22
2018-04-24T03:00:03.752Z,15.08
2018-04-24T03:02:31.124Z,15.19
2018-04-24T03:04:58.520Z,15.30
2018-04-24T03:07:25.895Z,15.25
2018-04-24T03:09:53.297Z,15.26
2018-04-24T03:12:20.684Z,15.28
2018-04-24T03:14:48.075Z,15.11
2018-04-24T03:17:15.454Z,15.31
2018-04-24T03:19:42.853Z,15.28
2018-04-24T03:22:10.234Z,15.04
2018-04-24T03:24:37.630Z,15.11
2018-04-24T03:27:05.016Z,15.34
2018-04-24T03:29:32.407Z,15.35
2018-04-24T03:31:59.798Z,14.97
2018-04-24T03:34:27.182Z,15.07
2018-04-24T03:36:54.573Z,14.95
2018-04-24T03:39:21.977Z,15.21
2018-04-24T03:41:49.362Z,14.95
2018-04-24T03:44:16.747Z,14.94
2018-04-24T03:46:44.132Z,14.90
2018-04-24T03:49:11.508Z,14.90
2018-04-24T03:51:38.894Z,15.08
2018-04-24T03:54:06.287Z,14.92
2018-04-24T03:56:33.683Z,14.88
2018-04-24T03:59:01.064Z,14.69
2018-04-24T04:01:28.500Z,14.91
2018-04-24T04:03:55.904Z,14.85
2018-04-24T04:06:23.310Z,14.75
2018-04-24T04:08:50.703Z,14.81
2018-04-24T04:11:18.094Z,14.91
2018-04-24T04:13:45.468Z,14.69
2018-04-24T04:16:12.859Z,14.68
2018-04-24T04:18:52.095Z,14.57
2018-04-24T04:21:31.235Z,14.55
2018-04-24T04:24:10.455Z,14.43
2018-04-24T04:26:37.843Z,14.60
2018-04-24T04:29:05.234Z,14.66
2018-04-24T04:31:32.631Z,14.62
2018-04-24T04:34:00.044Z,14.77
2018-04-24T04:36:27.518Z,14.53
2018-04-24T04:38:54.904Z,14.52
2018-04-24T04:41:22.322Z,14.67
2018-04-24T04:43:49.666Z,14.73
2018-04-24T04:46:17.059Z,14.42
2018-04-24T04:48:44.496Z,14.37
2018-04-24T04:51:11.874Z,14.63
2018-04-24T04:53:39.276Z,14.86
2018-04-24T04:56:06.708Z,14.49
2018-04-24T04:58:34.058Z,14.46
2018-04-24T05:01:01.444Z,14.42
2018-04-24T05:03:28.834Z,14.68
2018-04-24T05:05:56.215Z,14.54
2018-04-24T05:08:23.616Z,14.67
2018-04-24T05:10:51.005Z,14.80
2018-04-24T05:13:18.389Z,14.79
2018-04-24T05:15:45.881Z,14.79
2018-04-24T05:18:13.263Z,14.87
2018-04-24T05:20:40.647Z,14.94
2018-04-24T05:23:08.048Z,14.80
2018-04-24T05:25:35.440Z,14.87
2018-04-24T05:28:02.829Z,14.83
2018-04-24T05:30:30.224Z,14.92
2018-04-24T05:32:57.615Z,14.96
2018-04-24T05:35:25.007Z,14.78
2018-04-24T05:37:52.396Z,14.82
2018-04-24T05:40:19.780Z,14.84
2018-04-24T05:42:47.219Z,15.02
2018-04-24T05:45:14.610Z,14.84
2018-04-24T05:47:41.990Z,14.84
2018-04-24T05:50:09.496Z,14.96
2018-04-24T05:52:36.882Z,14.86
2018-04-24T05:55:04.272Z,14.89
2018-04-24T05:57:31.664Z,15.21
2018-04-24T05:59:59.052Z,15.23
2018-04-24T06:02:26.439Z,15.22
2018-04-24T06:04:53.874Z,15.24
2018-04-24T06:07:21.312Z,15.24
2018-04-24T06:09:48.751Z,15.38
2018-04-24T06:12:16.153Z,15.25
2018-04-24T06:14:43.539Z,15.41
2018-04-24T06:17:10.941Z,15.45
2018-04-24T06:19:38.327Z,15.36
2018-04-24T06:22:06.114Z,15.24
2018-04-24T06:24:33.513Z,15.26
2018-04-24T06:27:00.913Z,15.27
2018-04-24T06:29:28.293Z,15.53
2018-04-24T06:31:55.688Z,15.58
2018-04-24T06:34:23.079Z,15.87
2018-04-24T06:36:50.469Z,15.84
2018-04-24T06:39:17.860Z,15.98
2018-04-24T06:41:45.235Z,16.13
2018-04-24T06:44:12.633Z,16.20
2018-04-24T06:46:40.017Z,16.09
2018-04-24T06:49:07.402Z,15.85
2018-04-24T06:51:34.788Z,15.95
2018-04-24T06:54:02.176Z,16.01
2018-04-24T06:56:29.558Z,16.28
2018-04-24T06:58:57.513Z,16.18
2018-04-24T07:01:24.900Z,16.18
2018-04-24T07:03:52.300Z,16.25
2018-04-24T07:06:19.721Z,16.05
2018-04-24T07:08:47.083Z,16.10
2018-04-24T07:11:14.467Z,16.16
2018-04-24T07:13:41.855Z,16.42
2018-04-24T07:16:09.235Z,16.54
2018-04-24T07:18:36.628Z,16.49
2018-04-24T07:21:04.019Z,16.79
2018-04-24T07:23:31.379Z,16.62
2018-04-24T07:25:58.779Z,16.40
2018-04-24T07:28:26.161Z,16.58
2018-04-24T07:30:53.545Z,16.49
2018-04-24T07:33:20.928Z,16.65
2018-04-24T07:35:48.328Z,16.86
2018-04-24T07:38:16.389Z,16.90
2018-04-24T07:40:43.785Z,16.77
2018-04-24T07:43:11.772Z,16.96
2018-04-24T07:45:39.168Z,16.79
2018-04-24T07:48:06.539Z,16.85
2018-04-24T07:50:33.936Z,16.78
2018-04-24T07:53:01.316Z,17.14
2018-04-24T07:55:28.712Z,17.29
2018-04-24T07:57:56.086Z,16.95
2018-04-24T08:00:23.476Z,17.13
2018-04-24T08:02:50.855Z,17.40
2018-04-24T08:05:18.259Z,17.50
2018-04-24T08:07:45.625Z,17.48
2018-04-24T08:10:12.995Z,17.58
2018-04-24T08:12:40.392Z,17.84
2018-04-24T08:15:07.767Z,17.81
2018-04-24T08:17:35.155Z,17.83
2018-04-24T08:20:02.530Z,17.86
2018-04-24T08:22:38.662Z,17.99
2018-04-24T08:25:06.030Z,18.07
2018-04-24T08:27:33.406Z,18.16
2018-04-24T08:30:00.842Z,18.31
2018-04-24T08:32:28.223Z,18.10
2018-04-24T08:34:55.599Z,18.21
2018-04-24T08:37:22.982Z,18.31
2018-04-24T08:39:50.356Z,18.18
2018-04-24T08:42:17.739Z,18.39
2018-04-24T08:44:45.128Z,18.04
2018-04-24T08:47:12.502Z,17.96
2018-04-24T08:49:39.881Z,18.37
2018-04-24T08:52:07.260Z,18.48
2018-04-24T08:54:34.636Z,18.51
2018-04-24T08:57:02.028Z,18.77
2018-04-24T08:59:29.415Z,18.45
2018-04-24T09:01:56.854Z,18.64
2018-04-24T09:04:25.956Z,18.64
2018-04-24T09:06:53.327Z,18.57
2018-04-24T09:09:20.717Z,18.54
2018-04-24T09:11:48.083Z,18.68
2018-04-24T09:14:15.462Z,18.54
2018-04-24T09:16:42.848Z,19.01
2018-04-24T09:19:10.235Z,18.81
2018-04-24T09:21:37.612Z,18.85
2018-04-24T09:24:05.001Z,18.41
2018-04-24T09:26:32.379Z,19.20
2018-04-24T09:28:59.767Z,18.93
2018-04-24T09:31:32.620Z,19.43
2018-04-24T09:34:00.015Z,19.75
2018-04-24T09:36:27.402Z,19.76
2018-04-24T09:38:54.865Z,19.36
2018-04-24T09:41:22.163Z,19.35
2018-04-24T09:43:49.564Z,19.22
2018-04-24T09:46:16.932Z,19.47
2018-04-24T09:48:44.303Z,19.51
2018-04-24T09:51:11.690Z,19.45
2018-04-24T09:53:39.073Z,19.54
2018-04-24T09:56:06.459Z,19.53
2018-04-24T09:58:33.848Z,19.71
2018-04-24T10:01:01.238Z,19.71
2018-04-24T10:03:28.621Z,20.13
2018-04-24T10:05:56.006Z,19.93
2018-04-24T10:08:24.183Z,20.18
2018-04-24T10:10:51.566Z,20.07
2018-04-24T10:13:18.953Z,19.79
2018-04-24T10:15:46.343Z,19.62
2018-04-24T10:18:13.765Z,19.88
2018-04-24T10:20:41.182Z,19.89
2018-04-24T10:23:08.606Z,19.64
2018-04-24T10:25:35.975Z,19.79
2018-04-24T10:28:03.359Z,19.59
2018-04-24T10:30:30.738Z,19.61
2018-04-24T10:32:58.133Z,19.91
2018-04-24T10:35:25.553Z,19.86
2018-04-24T10:37:52.938Z,20.24
2018-04-24T10:40:20.426Z,19.88
2018-04-24T10:42:47.936Z,20.27
2018-04-24T10:45:15.360Z,20.28
2018-04-24T10:47:42.752Z,19.89
2018-04-24T10:50:10.119Z,19.57
2018-04-24T10:52:37.514Z,20.00
2018-04-24T10:55:04.957Z,19.99
2018-04-24T10:57:32.375Z,20.21
2018-04-24T10:59:59.755Z,20.14
2018-04-24T11:02:27.464Z,20.20
2018-04-24T11:04:54.983Z,20.17
2018-04-24T11:07:22.381Z,20.47
2018-04-24T11:09:49.765Z,20.59
2018-04-24T11:12:17.152Z,20.92
2018-04-24T11:14:44.536Z,20.53
2018-04-24T11:17:11.907Z,20.99
2018-04-24T11:19:39.295Z,21.24
2018-04-24T11:22:06.679Z,21.36
2018-04-24T11:24:34.081Z,21.50
2018-04-24T11:27:01.447Z,21.45
2018-04-24T11:29:28.836Z,21.16
2018-04-24T11:31:56.208Z,21.45
2018-04-24T11:34:23.633Z,20.52
2018-04-24T11:36:50.992Z,21.03
2018-04-24T11:39:18.393Z,20.59
2018-04-24T11:41:45.767Z,20.79
2018-04-24T11:44:13.180Z,20.98
2018-04-24T11:46:40.551Z,21.62
2018-04-24T11:49:07.927Z,21.58
2018-04-24T11:51:35.340Z,21.64
2018-04-24T11:54:02.724Z,21.96
2018-04-24T11:56:30.116Z,22.07
2018-04-24T11:58:57.495Z,21.92
2018-04-24T12:01:24.879Z,22.13
2018-04-24T12:03:52.255Z,22.30
2018-04-24T12:06:19.870Z,22.75
2018-04-24T12:08:47.267Z,22.28
2018-04-24T12:11:14.648Z,22.30
2018-04-24T12:13:42.028Z,22.48
2018-04-24T12:16:09.415Z,23.45
2018-04-24T12:18:36.796Z,23.37
2018-04-24T12:21:04.192Z,24.03
2018-04-24T12:23:31.568Z,23.69
2018-04-24T12:25:58.970Z,24.21
2018-04-24T12:28:26.365Z,24.89
2018-04-24T12:30:53.923Z,25.11
2018-04-24T12:33:21.347Z,24.36
2018-04-24T12:35:48.906Z,23.73
2018-04-24T12:38:17.067Z,24.25
2018-04-24T12:40:44.439Z,23.02
2018-04-24T12:43:11.832Z,24.01
2018-04-24T12:45:39.204Z,24.01
2018-04-24T12:48:06.583Z,24.80
2018-04-24T12:50:34.007Z,24.39
2018-04-24T12:53:01.474Z,25.14
2018-04-24T12:55:28.829Z,26.58
2018-04-24T12:57:56.337Z,26.69
2018-04-24T13:00:23.614Z,27.15
2018-04-24T13:02:51.042Z,26.41
2018-04-24T13:05:18.477Z,26.95
2018-04-24T13:07:45.876Z,27.46
2018-04-24T13:10:13.300Z,28.41
2018-04-24T13:12:40.674Z,28.14
2018-04-24T13:15:08.061Z,27.34
2018-04-24T13:17:35.442Z,27.35
2018-04-24T13:20:02.835Z,27.04
2018-04-24T13:22:30.207Z,28.27
2018-04-24T13:24:57.601Z,27.97
2018-04-24T13:27:24.983Z,27.55
2018-04-24T13:29:52.377Z,27.19
2018-04-24T13:32:19.750Z,26.52
2018-04-24T13:34:47.149Z,27.13
2018-04-24T13:37:14.621Z,27.56
2018-04-24T13:39:41.923Z,28.77
2018-04-24T13:42:09.400Z,29.28
2018-04-24T13:44:36.933Z,29.92
2018-04-24T13:47:04.323Z,30.46
2018-04-24T13:49:31.720Z,29.52
2018-04-24T13:51:59.099Z,29.04
2018-04-24T13:54:26.502Z,28.95
2018-04-24T13:56:53.887Z,29.59
2018-04-24T13:59:21.271Z,28.39
2018-04-24T14:01:48.840Z,28.75
2018-04-24T14:04:16.204Z,27.93
2018-04-24T14:06:43.611Z,28.17
2018-04-24T14:09:10.998Z,29.24
2018-04-24T14:11:38.455Z,28.65
2018-04-24T14:14:05.872Z,28.79
2018-04-24T14:16:33.249Z,29.58
2018-04-24T14:19:00.640Z,27.92
2018-04-24T14:21:29.741Z,29.64
2018-04-24T14:23:57.110Z,30.12
2018-04-24T14:26:24.508Z,28.55
2018-04-24T14:28:51.897Z,29.42
2018-04-24T14:31:19.284Z,31.00
2018-04-24T14:33:46.696Z,29.34
2018-04-24T14:36:14.205Z,28.81
2018-04-24T14:38:41.660Z,28.80
2018-04-24T14:41:08.951Z,30.10
2018-04-24T14:43:36.433Z,29.97
2018-04-24T14:46:03.983Z,29.76
2018-04-24T14:48:31.468Z,29.19
2018-04-24T14:50:58.883Z,30.05
2018-04-24T14:53:26.264Z,28.13
2018-04-24T14:55:53.643Z,27.35
2018-04-24T14:58:21.083Z,28.61
2018-04-24T15:00:48.496Z,28.73
2018-04-24T15:03:16.050Z,28.94
2018-04-24T15:05:43.479Z,28.74
2018-04-24T15:08:10.872Z,28.74
2018-04-24T15:10:38.242Z,28.01
2018-04-24T15:13:05.654Z,27.53
2018-04-24T15:15:33.150Z,27.43
2018-04-24T15:18:00.537Z,27.28
2018-04-24T15:20:28.322Z,27.76
2018-04-24T15:22:55.683Z,28.23
2018-04-24T15:25:23.064Z,27.75
2018-04-24T15:27:50.441Z,27.17
2018-04-24T15:30:17.830Z,28.21
2018-04-24T15:32:45.208Z,28.33
2018-04-24T15:35:12.593Z,26.97
2018-04-24T15:37:40.119Z,26.93
2018-04-24T15:40:07.500Z,26.94
2018-04-24T15:42:34.891Z,27.25
2018-04-24T15:45:02.278Z,26.66
2018-04-24T15:47:29.644Z,26.66
2018-04-24T15:49:57.031Z,26.92
2018-04-24T15:52:24.423Z,27.07
2018-04-24T15:54:51.871Z,26.41
2018-04-24T15:57:19.199Z,26.41
2018-04-24T15:59:46.595Z,25.42
2018-04-24T16:02:13.971Z,26.19
2018-04-24T16:04:41.354Z,26.03
2018-04-24T16:07:08.747Z,26.25
2018-04-24T16:09:36.164Z,25.37
2018-04-24T16:12:03.547Z,25.26
2018-04-24T16:14:30.932Z,25.22
2018-04-24T16:16:58.330Z,25.48
2018-04-24T16:19:25.812Z,24.84
2018-04-24T16:21:53.090Z,25.10
2018-04-24T16:24:20.497Z,25.22
2018-04-24T16:26:47.930Z,25.18
2018-04-24T16:29:15.330Z,25.08
2018-04-24T16:31:42.729Z,24.75
2018-04-24T16:34:10.124Z,24.76
2018-04-24T16:36:37.507Z,24.77
2018-04-24T16:39:05.577Z,24.86
2018-04-24T16:41:32.950Z,24.95
2018-04-24T16:44:00.389Z,24.70
2018-04-24T16:46:27.819Z,24.49
2018-04-24T16:48:55.155Z,24.67
2018-04-24T16:51:22.549Z,24.49
2018-04-24T16:53:49.943Z,24.44
2018-04-24T16:56:17.422Z,24.44
2018-04-24T16:58:44.718Z,24.34
2018-04-24T17:01:12.087Z,24.36
2018-04-24T17:03:39.473Z,23.79
2018-04-24T17:06:06.910Z,23.70
2018-04-24T17:08:34.225Z,23.83
2018-04-24T17:11:01.604Z,23.95
2018-04-24T17:13:29.006Z,24.11
2018-04-24T17:15:56.379Z,23.91
2018-04-24T17:18:23.752Z,23.89
2018-04-24T17:20:51.142Z,23.66
2018-04-24T17:23:18.517Z,23.98
2018-04-24T17:25:45.902Z,23.67
2018-04-24T17:28:13.310Z,23.49
2018-04-24T17:30:40.727Z,23.75
2018-04-24T17:33:08.115Z,23.64
2018-04-24T17:35:35.504Z,23.49
2018-04-24T17:38:03.709Z,23.43
2018-04-24T17:40:31.105Z,23.05
2018-04-24T17:42:58.487Z,23.11
2018-04-24T17:45:26.152Z,22.98
2018-04-24T17:47:53.561Z,23.14
2018-04-24T17:50:20.940Z,23.28
2018-04-24T17:52:48.320Z,23.19
2018-04-24T17:55:15.733Z,22.93
2018-04-24T17:57:43.130Z,22.95
2018-04-24T18:00:10.517Z,22.72
2018-04-24T18:02:37.900Z,22.64
2018-04-24T18:05:05.289Z,22.74
2018-04-24T18:07:32.667Z,22.46
2018-04-24T18:10:00.044Z,22.45
2018-04-24T18:12:28.148Z,22.61
2018-04-24T18:14:55.519Z,22.59
2018-04-24T18:17:22.913Z,22.48
2018-04-24T18:19:50.287Z,22.29
2018-04-24T18:22:17.680Z,22.43
2018-04-24T18:24:45.071Z,22.40
2018-04-24T18:27:12.478Z,22.18
2018-04-24T18:29:39.914Z,22.08
2018-04-24T18:32:07.462Z,22.16
2018-04-24T18:34:34.865Z,21.94
2018-04-24T18:37:02.213Z,21.93
2018-04-24T18:39:29.605Z,21.93
2018-04-24T18:41:56.964Z,22.11
2018-04-24T18:44:25.244Z,22.15
2018-04-24T18:46:52.596Z,22.01
2018-04-24T18:49:19.979Z,21.82
2018-04-24T18:51:47.352Z,21.63
2018-04-24T18:54:14.735Z,21.71
2018-04-24T18:56:42.121Z,21.72
2018-04-24T18:59:09.502Z,21.75
2018-04-24T19:01:36.884Z,21.64
2018-04-24T19:04:04.269Z,21.56
2018-04-24T19:06:31.636Z,21.57
2018-04-24T19:08:59.012Z,21.44
2018-04-24T19:11:26.389Z,21.47
2018-04-24T19:13:53.785Z,21.35
2018-04-24T19:16:21.151Z,21.32
2018-04-24T19:18:54.048Z,21.31
2018-04-24T19:21:21.427Z,21.21
2018-04-24T19:23:48.809Z,21.29
2018-04-24T19:26:16.456Z,21.45
2018-04-24T19:28:43.835Z,21.29
2018-04-24T19:34:11.468Z,20.93
2018-04-24T19:36:38.867Z,20.81
2018-04-24T19:39:12.928Z,20.91
2018-04-24T19:41:45.873Z,20.65
2018-04-24T19:44:13.251Z,20.56
2018-04-24T19:46:40.629Z,20.50
2018-04-24T19:49:13.615Z,20.63
2018-04-24T19:51:40.915Z,20.43
2018-04-24T19:54:08.294Z,20.55
2018-04-24T19:56:35.667Z,20.33
2018-04-24T19:59:03.040Z,20.44
2018-04-24T20:01:30.428Z,20.42
2018-04-24T20:03:57.809Z,20.26
2018-04-24T20:06:25.172Z,20.21
2018-04-24T20:08:52.546Z,20.17
2018-04-24T20:11:19.935Z,20.15
2018-04-24T20:13:47.338Z,20.23
2018-04-24T20:16:14.704Z,20.18
2018-04-24T20:18:42.087Z,20.15
2018-04-24T20:21:09.462Z,20.03
2018-04-24T20:23:36.847Z,20.01
2018-04-24T20:26:04.214Z,20.02
2018-04-24T20:28:31.605Z,19.97
2018-04-24T20:30:58.988Z,19.89
2018-04-24T20:33:26.363Z,19.86
2018-04-24T20:35:53.743Z,19.84
2018-04-24T20:38:21.116Z,19.73
2018-04-24T20:40:48.498Z,19.72
2018-04-24T20:43:15.876Z,19.75
2018-04-24T20:45:43.268Z,19.84
2018-04-24T20:48:10.636Z,20.08
2018-04-24T20:50:38.032Z,19.96
2018-04-24T20:53:05.445Z,19.76
2018-04-24T20:55:32.780Z,19.92
2018-04-24T20:58:00.171Z,19.72
2018-04-24T21:00:27.554Z,19.74
2018-04-24T21:02:54.924Z,19.39
2018-04-24T21:05:22.308Z,19.71
2018-04-24T21:07:49.687Z,19.48
2018-04-24T21:10:17.084Z,19.44
2018-04-24T21:12:44.462Z,19.58
2018-04-24T21:15:11.844Z,19.54
2018-04-24T21:17:39.226Z,19.46
2018-04-24T21:20:06.608Z,19.26
2018-04-24T21:22:34.002Z,19.34
2018-04-24T21:25:01.408Z,19.44
2018-04-24T21:27:28.949Z,19.33
2018-04-24T21:29:56.360Z,19.30
2018-04-24T21:32:23.732Z,19.31
2018-04-24T21:34:51.115Z,19.36
2018-04-24T21:37:18.506Z,19.24
2018-04-24T21:39:45.891Z,19.16
2018-04-24T21:42:13.288Z,18.94
2018-04-24T21:44:41.059Z,19.13
2018-04-24T21:47:08.444Z,18.94
2018-04-24T21:49:35.820Z,19.03
2018-04-24T21:52:03.214Z,19.00
2018-04-24T21:54:30.619Z,19.10
2018-04-24T21:56:57.999Z,18.81
2018-04-24T21:59:25.374Z,19.03
2018-04-24T22:01:52.767Z,18.90
2018-04-24T22:04:20.146Z,18.74
2018-04-24T22:06:47.526Z,18.71
2018-04-24T22:09:14.922Z,18.73
2018-04-24T22:11:42.538Z,18.83
2018-04-24T22:14:10.212Z,18.85
2018-04-24T22:16:37.802Z,18.60
2018-04-24T22:19:06.031Z,18.63
2018-04-24T22:21:33.411Z,18.67
2018-04-24T22:24:00.799Z,18.68
2018-04-24T22:26:28.185Z,18.55
2018-04-24T22:28:55.577Z,18.74
2018-04-24T22:31:22.959Z,18.62
2018-04-24T22:33:50.340Z,18.66
2018-04-24T22:36:17.899Z,18.35
2018-04-24T22:38:45.298Z,18.48
2018-04-24T22:41:12.679Z,18.41
2018-04-24T22:43:40.065Z,18.43
2018-04-24T22:46:07.441Z,18.52
2018-04-24T22:48:34.820Z,18.37
2018-04-24T22:51:02.204Z,18.41
2018-04-24T22:53:29.589Z,18.42
2018-04-24T22:55:56.968Z,18.20
2018-04-24T22:58:24.369Z,18.30
2018-04-24T23:00:51.755Z,18.25
2018-04-24T23:03:19.124Z,18.09
2018-04-24T23:05:46.527Z,18.19
2018-04-24T23:08:14.029Z,18.21
2018-04-24T23:10:53.176Z,18.24
2018-04-24T23:13:32.265Z,18.15
2018-04-24T23:16:11.515Z,18.04
2018-04-24T23:18:50.548Z,18.05
2018-04-24T23:21:17.396Z,18.02
2018-04-24T23:23:44.776Z,18.07
2018-04-24T23:26:12.164Z,17.94
2018-04-24T23:28:39.552Z,18.08
2018-04-24T23:31:06.937Z,17.93
2018-04-24T23:33:34.305Z,18.01
2018-04-24T23:36:01.712Z,17.89
2018-04-24T23:38:29.172Z,17.82
2018-04-24T23:40:56.476Z,17.98
2018-04-24T23:43:23.852Z,17.87
2018-04-24T23:45:51.242Z,17.82
2018-04-24T23:48:18.639Z,17.80
2018-04-24T23:50:46.016Z,17.72
2018-04-24T23:53:13.412Z,17.61
2018-04-24T23:55:40.799Z,17.51
2018-04-24T23:58:08.319Z,17.54
